Time;durP1;ratioP1;P1;durP2;ratioP2;P2;SDS_P1;SDS_P2;PMS_P1;PMS_P2;Temp;Humidity;BMP_temperature;BMP_pressure;BME280_temperature;BME280_humidity;BME280_pressure;Samples;Min_cycle;Max_cycle;Signal;HPM_P1;HPM_P2
2021/04/27 00:02:53;;;;;;;0.60;0.40;;;14.50;99.90;;;;;;20600784;28;20226;-76
2021/04/27 00:12:55;;;;;;;0.33;0.33;;;14.50;99.90;;;;;;20617861;28;20209;-78
2021/04/27 00:22:59;;;;;;;14.03;0.87;;;14.50;99.90;;;;;;20616428;28;20241;-80
2021/04/27 00:33:02;;;;;;;0.70;0.70;;;14.50;99.90;;;;;;20599517;28;20259;-79
2021/04/27 00:43:06;;;;;;;1.80;0.40;;;14.40;99.90;;;;;;20613524;28;20592;-80
2021/04/27 00:53:18;;;;;;;0.70;0.70;;;14.10;99.90;;;;;;20615306;28;20196;-75
2021/04/27 01:03:22;;;;;;;0.47;0.47;;;13.90;99.90;;;;;;20578987;28;20234;-74
2021/04/27 01:13:33;;;;;;;1.07;1.03;;;13.80;99.90;;;;;;20531038;28;20196;-75
2021/04/27 01:24:14;;;;;;;2.43;1.63;;;13.80;99.90;;;;;;20532584;28;20318;-75
2021/04/27 01:34:22;;;;;;;1.50;1.30;;;13.70;99.90;;;;;;20529476;28;20649;-76
2021/04/27 01:44:27;;;;;;;0.50;0.50;;;13.60;99.90;;;;;;20531033;28;20233;-75
2021/04/27 01:54:31;;;;;;;1.60;0.53;;;13.80;99.90;;;;;;20529823;28;20196;-73
2021/04/27 02:04:34;;;;;;;0.40;0.40;;;13.90;99.90;;;;;;20573814;28;20215;-75
2021/04/27 02:14:39;;;;;;;0.50;0.50;;;13.90;99.90;;;;;;20591935;28;20562;-75
2021/04/27 02:24:42;;;;;;;1.93;0.70;;;14.10;99.90;;;;;;20607334;28;20374;-76
2021/04/27 02:34:48;;;;;;;0.87;0.80;;;14.20;99.90;;;;;;20609641;28;20257;-77
2021/04/27 02:44:51;;;;;;;2.00;1.60;;;14.00;99.90;;;;;;20592686;28;20231;-80
2021/04/27 02:54:54;;;;;;;0.47;0.33;;;13.90;99.90;;;;;;20610148;28;20561;-85
2021/04/27 03:04:57;;;;;;;1.90;0.87;;;13.80;99.90;;;;;;20543091;28;20230;-84
2021/04/27 03:15:01;;;;;;;0.20;0.17;;;13.70;99.90;;;;;;20543645;28;20214;-74
2021/04/27 03:25:05;;;;;;;0.77;0.23;;;13.60;99.90;;;;;;20539886;28;20255;-74
2021/04/27 03:35:11;;;;;;;5.03;1.30;;;13.40;99.90;;;;;;20541656;28;20571;-76
2021/04/27 03:45:16;;;;;;;0.83;0.73;;;13.30;99.90;;;;;;20538860;28;20220;-76
2021/04/27 03:55:20;;;;;;;0.97;0.90;;;13.30;99.90;;;;;;20539875;28;20211;-77
2021/04/27 04:05:23;;;;;;;0.77;0.77;;;13.30;99.90;;;;;;20591096;28;20628;-82
2021/04/27 04:15:26;;;;;;;0.53;0.53;;;13.30;99.90;;;;;;20623202;28;20204;-82
2021/04/27 04:25:29;;;;;;;0.57;0.40;;;13.20;99.90;;;;;;20619141;28;20247;-76
2021/04/27 04:35:33;;;;;;;2.57;1.07;;;13.30;99.90;;;;;;20618487;28;20234;-76
2021/04/27 04:45:38;;;;;;;2.10;1.30;;;13.30;99.90;;;;;;20599488;28;20633;-83
2021/04/27 04:55:42;;;;;;;0.80;0.80;;;13.10;99.90;;;;;;20616348;28;20201;-81
2021/04/27 05:05:45;;;;;;;0.90;0.90;;;12.80;99.90;;;;;;20559993;28;20329;-82
2021/04/27 05:15:49;;;;;;;1.60;1.20;;;12.70;99.90;;;;;;20539673;28;20699;-83
2021/04/27 05:25:51;;;;;;;1.77;1.50;;;12.80;99.90;;;;;;20615423;28;20223;-83
2021/04/27 05:35:55;;;;;;;20.30;1.77;;;12.90;99.90;;;;;;20539211;28;20232;-75
2021/04/27 05:45:58;;;;;;;1.90;0.50;;;13.30;99.90;;;;;;20529093;28;20684;-77
2021/04/27 05:56:01;;;;;;;4.73;1.80;;;13.50;99.90;;;;;;20529967;28;20364;-79
2021/04/27 06:06:04;;;;;;;1.33;1.23;;;13.60;99.90;;;;;;20513871;28;20238;-81
2021/04/27 06:16:08;;;;;;;0.30;0.30;;;13.90;99.90;;;;;;20529613;28;20258;-73
2021/04/27 06:26:11;;;;;;;0.40;0.40;;;14.10;99.90;;;;;;20535187;28;20234;-80
2021/04/27 06:36:16;;;;;;;1.13;1.03;;;14.20;99.90;;;;;;20609250;28;20231;-80
2021/04/27 06:46:20;;;;;;;0.83;0.83;;;14.40;99.90;;;;;;20618901;28;20719;-74
2021/04/27 06:56:25;;;;;;;0.47;0.47;;;14.80;99.90;;;;;;20606329;28;20204;-76
2021/04/27 07:06:28;;;;;;;3.67;1.77;;;14.90;99.90;;;;;;20560629;28;21064;-76
2021/04/27 07:16:34;;;;;;;1.37;0.87;;;15.10;99.90;;;;;;20550138;28;20208;-79
2021/04/27 07:26:37;;;;;;;1.57;0.77;;;15.20;99.90;;;;;;20546931;28;20321;-76
2021/04/27 07:36:41;;;;;;;0.57;0.50;;;15.10;99.90;;;;;;20702579;28;20282;-83
2021/04/27 07:46:44;;;;;;;3.17;1.67;;;15.20;99.90;;;;;;20568246;28;20227;-87
2021/04/27 07:56:50;;;;;;;16.70;1.23;;;15.20;99.90;;;;;;20532749;28;20279;-83
2021/04/27 08:06:59;;;;;;;4.30;1.13;;;15.20;99.90;;;;;;20586203;28;20219;-80
2021/04/27 08:17:09;;;;;;;1.53;0.83;;;15.20;99.90;;;;;;20609275;28;20199;-87
2021/04/27 08:27:14;;;;;;;19.13;2.60;;;15.10;99.90;;;;;;20617413;28;20235;-78
2021/04/27 08:37:18;;;;;;;0.50;0.50;;;15.00;99.90;;;;;;20616625;28;20274;-79
2021/04/27 08:47:24;;;;;;;5.77;1.60;;;15.20;99.90;;;;;;20614912;28;20709;-77
2021/04/27 08:57:34;;;;;;;1.47;0.90;;;15.60;99.90;;;;;;20620688;28;20324;-86
2021/04/27 09:07:45;;;;;;;1.53;1.30;;;15.70;99.90;;;;;;20549788;28;20228;-78
2021/04/27 09:17:53;;;;;;;2.13;1.10;;;16.60;99.90;;;;;;20565635;28;20200;-86
2021/04/27 09:28:01;;;;;;;0.60;0.60;;;17.20;99.90;;;;;;20573929;28;20243;-83
2021/04/27 09:38:23;;;;;;;0.47;0.47;;;17.30;99.90;;;;;;20632376;28;20943;-81
2021/04/27 09:48:37;;;;;;;0.40;0.40;;;18.50;99.90;;;;;;20625106;28;20327;-82
2021/04/27 09:59:05;;;;;;;0.50;0.50;;;18.70;99.90;;;;;;20624281;28;20196;-83
2021/04/27 10:09:12;;;;;;;1.83;1.20;;;18.40;99.90;;;;;;20618361;28;21017;-79
2021/04/27 10:19:16;;;;;;;2.50;1.33;;;18.30;99.90;;;;;;20622982;28;20629;-82
2021/04/27 10:29:23;;;;;;;0.70;0.53;;;19.20;99.90;;;;;;20633044;28;20748;-84
2021/04/27 10:39:42;;;;;;;1.53;1.43;;;19.60;99.90;;;;;;20633025;28;20469;-80
2021/04/27 10:49:45;;;;;;;1.00;1.00;;;20.80;99.90;;;;;;20610956;28;20230;-80
2021/04/27 10:59:58;;;;;;;0.80;0.80;;;20.70;99.90;;;;;;20637818;28;20262;-80
2021/04/27 11:10:32;;;;;;;1.87;1.17;;;20.40;99.90;;;;;;20637843;28;20215;-84
2021/04/27 11:20:56;;;;;;;0.60;0.43;;;19.80;99.90;;;;;;20583916;28;20211;-82
2021/04/27 11:31:15;;;;;;;1.90;1.57;;;19.70;99.90;;;;;;20512543;28;20272;-82
2021/04/27 11:41:21;;;;;;;1.87;1.23;;;19.50;99.90;;;;;;20542706;28;20238;-77
2021/04/27 11:51:30;;;;;;;1.03;0.67;;;19.70;99.90;;;;;;20555667;28;20224;-84
2021/04/27 12:01:34;;;;;;;2.53;1.50;;;19.80;99.90;;;;;;20554053;28;20295;-82
2021/04/27 12:11:38;;;;;;;0.63;0.50;;;19.40;99.90;;;;;;20531651;28;20196;-78
2021/04/27 12:21:59;;;;;;;6.67;1.53;;;19.50;99.90;;;;;;20541400;28;20251;-84
2021/04/27 12:32:09;;;;;;;1.17;0.67;;;19.30;99.90;;;;;;20545684;28;20235;-81
2021/04/27 12:42:20;;;;;;;3.67;1.43;;;19.80;99.90;;;;;;20616958;28;20689;-79
2021/04/27 12:52:23;;;;;;;0.70;0.70;;;19.80;99.90;;;;;;20585737;28;20199;-83
2021/04/27 13:02:32;;;;;;;0.40;0.40;;;19.00;99.90;;;;;;20571717;28;20219;-87
2021/04/27 13:12:40;;;;;;;1.73;1.37;;;20.20;99.90;;;;;;20632029;28;20648;-82
2021/04/27 13:22:49;;;;;;;1.10;1.00;;;20.60;99.90;;;;;;20627867;28;20258;-83
2021/04/27 13:32:54;;;;;;;7.83;0.90;;;19.20;99.90;;;;;;20585565;28;20231;-81
2021/04/27 13:43:01;;;;;;;1.07;0.70;;;18.40;99.90;;;;;;20595827;28;20235;-80
2021/04/27 13:53:05;;;;;;;0.37;0.30;;;18.40;99.90;;;;;;20597746;28;20203;-85
2021/04/27 14:03:09;;;;;;;0.47;0.47;;;19.60;99.90;;;;;;20575423;28;20246;-83
2021/04/27 14:13:12;;;;;;;1.03;0.97;;;20.40;99.90;;;;;;20627640;28;20199;-79
2021/04/27 14:23:16;;;;;;;2.97;1.27;;;22.00;99.90;;;;;;20631619;28;20302;-84
2021/04/27 14:33:20;;;;;;;0.90;0.33;;;21.60;99.90;;;;;;20633436;28;20306;-72
2021/04/27 14:43:24;;;;;;;0.47;0.47;;;24.90;99.90;;;;;;20617428;28;20420;-82
2021/04/27 14:53:27;;;;;;;1.03;0.57;;;25.10;99.90;;;;;;20621085;28;20203;-78
2021/04/27 15:03:34;;;;;;;0.73;0.63;;;23.80;99.90;;;;;;20551442;28;20318;-88
2021/04/27 15:13:40;;;;;;;2.40;1.50;;;23.70;99.90;;;;;;20643404;28;20931;-85
2021/04/27 15:23:44;;;;;;;1.43;1.17;;;23.30;99.90;;;;;;20636059;28;20581;-78
2021/04/27 15:33:47;;;;;;;1.60;1.27;;;21.70;99.90;;;;;;20616970;28;20904;-82
2021/04/27 15:43:51;;;;;;;1.23;1.10;;;21.00;99.90;;;;;;20634895;28;20215;-80
2021/04/27 15:53:54;;;;;;;0.47;0.47;;;22.40;99.90;;;;;;20590002;28;20189;-78
2021/04/27 16:03:59;;;;;;;0.40;0.30;;;20.00;99.90;;;;;;20560826;28;20619;-71
2021/04/27 16:14:03;;;;;;;0.77;0.37;;;19.20;99.90;;;;;;20576888;28;20266;-84
2021/04/27 16:24:08;;;;;;;1.00;0.87;;;18.90;99.90;;;;;;20575448;28;20297;-82
2021/04/27 16:34:10;;;;;;;0.97;0.70;;;18.70;99.90;;;;;;20551870;28;20357;-80
2021/04/27 16:44:26;;;;;;;4.43;1.10;;;18.60;99.90;;;;;;20541681;28;20222;-77
2021/04/27 16:54:29;;;;;;;0.90;0.60;;;18.40;99.90;;;;;;20612746;23;20607;-77
2021/04/27 17:04:33;;;;;;;1.33;1.17;;;18.40;99.90;;;;;;20613371;28;20262;-79
2021/04/27 17:14:45;;;;;;;1.27;1.17;;;18.20;99.90;;;;;;20611260;28;20673;-77
2021/04/27 17:24:50;;;;;;;0.60;0.40;;;18.00;99.90;;;;;;20616169;28;20608;-78
2021/04/27 17:34:55;;;;;;;0.50;0.50;;;17.90;99.90;;;;;;20615495;28;20215;-80
2021/04/27 17:55:21;;;;;;;1.27;0.90;;;17.50;99.90;;;;;;20619538;28;20314;-79
2021/04/27 18:05:42;;;;;;;0.60;0.50;;;17.50;99.90;;;;;;20595384;28;20238;-76
2021/04/27 18:16:01;;;;;;;0.70;0.70;;;17.00;99.90;;;;;;20594920;28;20444;-78
2021/04/27 18:26:41;;;;;;;1.40;0.50;;;16.90;99.90;;;;;;20576545;23;20799;-83
2021/04/27 18:36:44;;;;;;;0.63;0.63;;;16.50;99.90;;;;;;20589257;28;20202;-78
2021/04/27 18:46:49;;;;;;;2.30;1.00;;;16.50;99.90;;;;;;20624071;28;20310;-76
2021/04/27 18:56:53;;;;;;;0.60;0.60;;;16.50;99.90;;;;;;20629213;28;20286;-77
2021/04/27 19:07:12;;;;;;;5.40;1.13;;;16.50;99.90;;;;;;20626345;28;20646;-72
2021/04/27 19:17:17;;;;;;;1.27;0.43;;;16.30;99.90;;;;;;20639017;28;20533;-83
2021/04/27 19:27:22;;;;;;;3.97;0.60;;;16.40;99.90;;;;;;20617346;28;21084;-83
2021/04/27 19:37:34;;;;;;;4.30;1.20;;;16.50;99.90;;;;;;20633703;28;20203;-85
2021/04/27 19:47:39;;;;;;;0.30;0.30;;;16.40;99.90;;;;;;20620969;28;20215;-84
2021/04/27 19:57:43;;;;;;;0.63;0.63;;;16.30;99.90;;;;;;20638702;28;20215;-84
2021/04/27 20:07:47;;;;;;;0.50;0.43;;;16.20;99.90;;;;;;20630360;28;20215;-82
2021/04/27 20:17:50;;;;;;;0.43;0.43;;;16.20;99.90;;;;;;20642298;28;20250;-83
2021/04/27 20:28:00;;;;;;;0.60;0.60;;;16.20;99.90;;;;;;20624887;28;20629;-79
2021/04/27 20:38:04;;;;;;;0.93;0.93;;;16.20;99.90;;;;;;20603486;28;20281;-82
2021/04/27 20:48:09;;;;;;;0.80;0.67;;;16.10;99.90;;;;;;20623257;28;20231;-82
2021/04/27 20:58:12;;;;;;;0.60;0.60;;;16.10;99.90;;;;;;20617247;28;20208;-79
2021/04/27 21:08:19;;;;;;;4.17;0.97;;;15.90;99.90;;;;;;20660617;23;20243;-79
2021/04/27 21:18:22;;;;;;;0.50;0.40;;;16.10;99.90;;;;;;20601950;28;20208;-79
2021/04/27 21:28:36;;;;;;;0.33;0.23;;;16.00;99.90;;;;;;20613588;28;20244;-79
2021/04/27 21:38:39;;;;;;;2.20;1.20;;;16.00;99.90;;;;;;20612150;28;20203;-81
2021/04/27 21:48:43;;;;;;;0.30;0.30;;;16.00;99.90;;;;;;21117301;23;20659;-79
2021/04/27 21:58:49;;;;;;;0.97;0.50;;;15.90;99.90;;;;;;20681369;28;20198;-83
2021/04/27 22:08:53;;;;;;;0.60;0.60;;;15.90;99.90;;;;;;20691926;28;20969;-78
2021/04/27 22:18:57;;;;;;;1.80;1.27;;;15.60;99.90;;;;;;20704673;28;20195;-77
2021/04/27 22:29:01;;;;;;;0.87;0.87;;;15.20;99.90;;;;;;20708982;28;21045;-77
2021/04/27 22:39:07;;;;;;;0.60;0.60;;;15.40;99.90;;;;;;20714409;23;20314;-78
2021/04/27 22:50:10;;;;;;;0.37;0.37;;;15.10;99.90;;;;;;20715111;23;20754;-78
2021/04/27 23:00:18;;;;;;;0.40;0.30;;;14.90;99.90;;;;;;20704622;28;20198;-77
2021/04/27 23:10:22;;;;;;;1.10;0.90;;;14.80;99.90;;;;;;20710988;28;20226;-83
2021/04/27 23:20:25;;;;;;;1.07;0.93;;;14.70;99.90;;;;;;20690869;28;20485;-81
2021/04/27 23:30:30;;;;;;;1.10;0.83;;;14.60;99.90;;;;;;20728435;28;21029;-83
2021/04/27 23:40:33;;;;;;;0.73;0.73;;;14.50;99.90;;;;;;20715978;28;20194;-83
2021/04/27 23:50:38;;;;;;;0.50;0.37;;;14.20;99.90;;;;;;20708801;28;20227;-80
